sensor_id;sensor_type;location;lat;lon;timestamp;pressure;altitude;pressure_sealevel;temperature;humidity
56074;BME280;41950;55.840;37.442;2022-12-29T00:00:49;99406.78;;;-0.10;85.25
56074;BME280;41950;55.840;37.442;2022-12-29T00:03:15;99409.97;;;-0.20;83.39
56074;BME280;41950;55.840;37.442;2022-12-29T00:05:40;99402.06;;;-0.31;83.58
56074;BME280;41950;55.840;37.442;2022-12-29T00:08:06;99414.22;;;-0.21;83.79
56074;BME280;41950;55.840;37.442;2022-12-29T00:10:32;99409.94;;;-0.22;83.64
56074;BME280;41950;55.840;37.442;2022-12-29T00:12:58;99401.28;;;-0.28;83.43
56074;BME280;41950;55.840;37.442;2022-12-29T00:15:42;99408.19;;;-0.24;83.21
56074;BME280;41950;55.840;37.442;2022-12-29T00:18:08;99409.91;;;-0.23;83.21
56074;BME280;41950;55.840;37.442;2022-12-29T00:20:35;99417.63;;;-0.20;83.30
56074;BME280;41950;55.840;37.442;2022-12-29T00:23:20;99410.84;;;-0.20;83.33
56074;BME280;41950;55.840;37.442;2022-12-29T00:26:11;99386.50;;;-0.45;82.80
56074;BME280;41950;55.840;37.442;2022-12-29T00:28:56;99419.69;;;-0.42;82.30
56074;BME280;41950;55.840;37.442;2022-12-29T00:31:40;99423.00;;;-0.46;82.66
56074;BME280;41950;55.840;37.442;2022-12-29T00:34:24;99420.44;;;-0.47;81.87
56074;BME280;41950;55.840;37.442;2022-12-29T00:37:09;99385.97;;;-0.68;82.01
56074;BME280;41950;55.840;37.442;2022-12-29T00:39:34;99392.06;;;-0.61;82.07
56074;BME280;41950;55.840;37.442;2022-12-29T00:42:18;99417.69;;;-0.55;81.71
56074;BME280;41950;55.840;37.442;2022-12-29T00:45:03;99372.84;;;-0.84;79.82
56074;BME280;41950;55.840;37.442;2022-12-29T00:47:28;99349.94;;;-1.19;80.40
56074;BME280;41950;55.840;37.442;2022-12-29T00:49:54;99406.94;;;-0.81;80.80
56074;BME280;41950;55.840;37.442;2022-12-29T00:52:20;99414.88;;;-0.67;80.79
56074;BME280;41950;55.840;37.442;2022-12-29T00:54:45;99431.25;;;-0.56;80.53
56074;BME280;41950;55.840;37.442;2022-12-29T00:57:11;99419.16;;;-0.66;80.92
56074;BME280;41950;55.840;37.442;2022-12-29T00:59:39;99416.59;;;-0.66;80.82
56074;BME280;41950;55.840;37.442;2022-12-29T01:02:05;99439.84;;;-0.54;80.83
56074;BME280;41950;55.840;37.442;2022-12-29T01:04:31;99439.88;;;-0.52;80.89
56074;BME280;41950;55.840;37.442;2022-12-29T01:06:57;99431.00;;;-0.68;80.72
56074;BME280;41950;55.840;37.442;2022-12-29T01:09:23;99444.75;;;-0.60;80.67
56074;BME280;41950;55.840;37.442;2022-12-29T01:12:08;99409.50;;;-0.79;80.69
56074;BME280;41950;55.840;37.442;2022-12-29T01:14:34;99430.81;;;-0.76;81.00
56074;BME280;41950;55.840;37.442;2022-12-29T01:17:00;99450.69;;;-0.61;81.24
56074;BME280;41950;55.840;37.442;2022-12-29T01:19:26;99396.38;;;-0.95;80.96
56074;BME280;41950;55.840;37.442;2022-12-29T01:21:52;99450.81;;;-0.55;80.89
56074;BME280;41950;55.840;37.442;2022-12-29T01:24:18;99454.34;;;-0.51;80.92
56074;BME280;41950;55.840;37.442;2022-12-29T01:26:45;99453.47;;;-0.52;81.03
56074;BME280;41950;55.840;37.442;2022-12-29T01:29:11;99466.28;;;-0.49;80.86
56074;BME280;41950;55.840;37.442;2022-12-29T01:31:36;99455.19;;;-0.51;80.34
56074;BME280;41950;55.840;37.442;2022-12-29T01:34:02;99458.44;;;-0.56;80.55
56074;BME280;41950;55.840;37.442;2022-12-29T01:36:28;99460.06;;;-0.60;80.38
56074;BME280;41950;55.840;37.442;2022-12-29T01:38:54;99422.81;;;-0.89;80.06
56074;BME280;41950;55.840;37.442;2022-12-29T01:41:19;99432.09;;;-0.93;80.36
56074;BME280;41950;55.840;37.442;2022-12-29T01:43:51;99457.75;;;-0.85;80.34
56074;BME280;41950;55.840;37.442;2022-12-29T01:46:40;99455.94;;;-0.89;80.48
56074;BME280;41950;55.840;37.442;2022-12-29T01:49:14;99448.06;;;-1.00;80.36
56074;BME280;41950;55.840;37.442;2022-12-29T01:51:52;99446.31;;;-1.01;80.72
56074;BME280;41950;55.840;37.442;2022-12-29T01:54:25;99456.50;;;-1.01;80.97
56074;BME280;41950;55.840;37.442;2022-12-29T01:56:53;99460.75;;;-1.02;81.02
56074;BME280;41950;55.840;37.442;2022-12-29T01:59:25;99454.69;;;-1.07;80.89
56074;BME280;41950;55.840;37.442;2022-12-29T02:01:53;99454.44;;;-1.16;81.15
56074;BME280;41950;55.840;37.442;2022-12-29T02:04:19;99445.78;;;-1.22;81.49
56074;BME280;41950;55.840;37.442;2022-12-29T02:06:57;99462.53;;;-1.31;80.99
56074;BME280;41950;55.840;37.442;2022-12-29T02:09:23;99446.94;;;-1.43;81.33
56074;BME280;41950;55.840;37.442;2022-12-29T02:11:49;99391.66;;;-1.80;81.31
56074;BME280;41950;55.840;37.442;2022-12-29T02:14:15;99461.34;;;-1.43;81.68
56074;BME280;41950;55.840;37.442;2022-12-29T02:19:52;99468.06;;;-1.45;81.88
56074;BME280;41950;55.840;37.442;2022-12-29T02:27:57;99474.38;;;-1.64;82.11
56074;BME280;41950;55.840;37.442;2022-12-29T02:30:51;99467.16;;;-1.79;82.14
56074;BME280;41950;55.840;37.442;2022-12-29T02:33:53;99478.47;;;-1.68;82.13
56074;BME280;41950;55.840;37.442;2022-12-29T02:39:12;99492.38;;;-1.57;82.21
56074;BME280;41950;55.840;37.442;2022-12-29T02:44:55;99483.59;;;-1.66;81.85
56074;BME280;41950;55.840;37.442;2022-12-29T02:47:45;99487.13;;;-1.63;82.07
56074;BME280;41950;55.840;37.442;2022-12-29T02:50:25;99438.84;;;-1.91;82.10
56074;BME280;41950;55.840;37.442;2022-12-29T02:53:11;99478.44;;;-1.69;81.86
56074;BME280;41950;55.840;37.442;2022-12-29T02:55:48;99481.78;;;-1.70;81.91
56074;BME280;41950;55.840;37.442;2022-12-29T02:58:22;99491.34;;;-1.63;82.10
56074;BME280;41950;55.840;37.442;2022-12-29T03:01:03;99476.59;;;-1.75;81.94
56074;BME280;41950;55.840;37.442;2022-12-29T03:16:55;99493.94;;;-1.92;82.32
56074;BME280;41950;55.840;37.442;2022-12-29T03:19:41;99502.59;;;-1.85;82.55
56074;BME280;41950;55.840;37.442;2022-12-29T03:22:25;99498.66;;;-1.74;82.41
56074;BME280;41950;55.840;37.442;2022-12-29T03:25:03;99504.66;;;-1.72;82.14
56074;BME280;41950;55.840;37.442;2022-12-29T03:27:38;99470.84;;;-1.98;82.10
56074;BME280;41950;55.840;37.442;2022-12-29T03:30:06;99469.66;;;-2.09;82.11
56074;BME280;41950;55.840;37.442;2022-12-29T03:32:37;99515.91;;;-1.92;82.24
56074;BME280;41950;55.840;37.442;2022-12-29T03:35:07;99497.16;;;-1.96;82.45
56074;BME280;41950;55.840;37.442;2022-12-29T03:37:40;99500.78;;;-1.89;82.01
56074;BME280;41950;55.840;37.442;2022-12-29T03:40:07;99506.72;;;-1.89;82.23
56074;BME280;41950;55.840;37.442;2022-12-29T03:42:35;99507.72;;;-1.83;82.03
56074;BME280;41950;55.840;37.442;2022-12-29T03:45:04;99473.16;;;-2.05;81.75
56074;BME280;41950;55.840;37.442;2022-12-29T03:47:29;99516.31;;;-1.80;81.66
56074;BME280;41950;55.840;37.442;2022-12-29T03:49:55;99529.09;;;-1.77;81.59
56074;BME280;41950;55.840;37.442;2022-12-29T03:52:21;99496.19;;;-2.01;81.45
56074;BME280;41950;55.840;37.442;2022-12-29T03:54:46;99532.25;;;-1.85;81.40
56074;BME280;41950;55.840;37.442;2022-12-29T03:57:12;99534.03;;;-1.83;81.35
56074;BME280;41950;55.840;37.442;2022-12-29T03:59:38;99527.00;;;-1.92;81.20
56074;BME280;41950;55.840;37.442;2022-12-29T04:02:03;99526.09;;;-1.92;81.31
56074;BME280;41950;55.840;37.442;2022-12-29T04:04:29;99536.25;;;-1.92;80.62
56074;BME280;41950;55.840;37.442;2022-12-29T04:06:54;99541.00;;;-2.04;81.04
56074;BME280;41950;55.840;37.442;2022-12-29T04:09:20;99547.00;;;-2.02;81.15
56074;BME280;41950;55.840;37.442;2022-12-29T04:11:46;99543.53;;;-2.04;81.24
56074;BME280;41950;55.840;37.442;2022-12-29T04:14:11;99512.31;;;-2.27;81.13
56074;BME280;41950;55.840;37.442;2022-12-29T04:16:37;99524.88;;;-2.32;81.18
56074;BME280;41950;55.840;37.442;2022-12-29T04:19:07;99539.31;;;-2.31;81.72
56074;BME280;41950;55.840;37.442;2022-12-29T04:21:32;99489.25;;;-2.60;82.01
56074;BME280;41950;55.840;37.442;2022-12-29T04:23:58;99527.28;;;-2.36;81.89
56074;BME280;41950;55.840;37.442;2022-12-29T04:26:24;99542.91;;;-2.24;81.90
56074;BME280;41950;55.840;37.442;2022-12-29T04:28:49;99541.97;;;-2.28;82.03
56074;BME280;41950;55.840;37.442;2022-12-29T04:31:15;99520.25;;;-2.45;81.92
56074;BME280;41950;55.840;37.442;2022-12-29T04:33:40;99539.38;;;-2.29;81.87
56074;BME280;41950;55.840;37.442;2022-12-29T04:36:06;99543.59;;;-2.30;81.90
56074;BME280;41950;55.840;37.442;2022-12-29T04:38:32;99520.41;;;-2.40;82.14
56074;BME280;41950;55.840;37.442;2022-12-29T04:41:01;99542.69;;;-2.32;82.13
56074;BME280;41950;55.840;37.442;2022-12-29T04:43:27;99540.88;;;-2.36;82.17
56074;BME280;41950;55.840;37.442;2022-12-29T04:45:53;99515.44;;;-2.63;82.39
56074;BME280;41950;55.840;37.442;2022-12-29T04:48:18;99546.16;;;-2.55;82.59
56074;BME280;41950;55.840;37.442;2022-12-29T04:50:47;99548.50;;;-2.61;83.08
56074;BME280;41950;55.840;37.442;2022-12-29T04:53:13;99551.81;;;-2.64;83.36
56074;BME280;41950;55.840;37.442;2022-12-29T04:55:38;99542.13;;;-2.74;83.55
56074;BME280;41950;55.840;37.442;2022-12-29T04:58:04;99554.34;;;-2.64;83.65
56074;BME280;41950;55.840;37.442;2022-12-29T05:00:29;99557.09;;;-2.58;83.58
56074;BME280;41950;55.840;37.442;2022-12-29T05:02:55;99559.72;;;-2.55;83.36
56074;BME280;41950;55.840;37.442;2022-12-29T05:05:20;99562.06;;;-2.61;83.31
56074;BME280;41950;55.840;37.442;2022-12-29T05:07:46;99559.28;;;-2.68;83.37
56074;BME280;41950;55.840;37.442;2022-12-29T05:10:14;99563.84;;;-2.84;83.74
56074;BME280;41950;55.840;37.442;2022-12-29T05:12:40;99577.44;;;-2.82;83.86
56074;BME280;41950;55.840;37.442;2022-12-29T05:15:07;99566.47;;;-2.81;83.99
56074;BME280;41950;55.840;37.442;2022-12-29T05:17:33;99575.28;;;-2.71;83.79
56074;BME280;41950;55.840;37.442;2022-12-29T05:19:58;99582.97;;;-2.69;83.62
56074;BME280;41950;55.840;37.442;2022-12-29T05:22:24;99582.28;;;-2.64;83.33
56074;BME280;41950;55.840;37.442;2022-12-29T05:24:56;99591.03;;;-2.56;83.25
56074;BME280;41950;55.840;37.442;2022-12-29T05:27:21;99591.94;;;-2.54;82.85
56074;BME280;41950;55.840;37.442;2022-12-29T05:29:47;99588.38;;;-2.59;82.84
56074;BME280;41950;55.840;37.442;2022-12-29T05:32:13;99585.03;;;-2.58;82.82
56074;BME280;41950;55.840;37.442;2022-12-29T05:34:38;99585.09;;;-2.56;82.70
56074;BME280;41950;55.840;37.442;2022-12-29T05:37:04;99556.25;;;-2.82;82.79
56074;BME280;41950;55.840;37.442;2022-12-29T05:39:35;99588.25;;;-2.63;82.64
56074;BME280;41950;55.840;37.442;2022-12-29T05:42:01;99597.88;;;-2.78;83.08
56074;BME280;41950;55.840;37.442;2022-12-29T05:44:35;99565.53;;;-3.08;83.22
56074;BME280;41950;55.840;37.442;2022-12-29T05:47:01;99598.13;;;-2.96;83.77
56074;BME280;41950;55.840;37.442;2022-12-29T05:49:26;99577.34;;;-3.08;83.72
56074;BME280;41950;55.840;37.442;2022-12-29T05:51:52;99580.53;;;-3.14;83.89
56074;BME280;41950;55.840;37.442;2022-12-29T05:54:17;99558.97;;;-3.27;84.12
56074;BME280;41950;55.840;37.442;2022-12-29T05:56:55;99582.47;;;-3.07;83.91
56074;BME280;41950;55.840;37.442;2022-12-29T05:59:20;99597.47;;;-2.91;83.60
56074;BME280;41950;55.840;37.442;2022-12-29T06:01:46;99596.53;;;-2.93;83.67
56074;BME280;41950;55.840;37.442;2022-12-29T06:04:11;99600.91;;;-2.89;83.54
56074;BME280;41950;55.840;37.442;2022-12-29T06:06:37;99565.38;;;-3.13;83.54
56074;BME280;41950;55.840;37.442;2022-12-29T06:09:04;99588.44;;;-3.06;83.63
56074;BME280;41950;55.840;37.442;2022-12-29T06:11:29;99606.34;;;-3.02;83.85
56074;BME280;41950;55.840;37.442;2022-12-29T06:13:55;99601.00;;;-3.09;83.77
56074;BME280;41950;55.840;37.442;2022-12-29T06:16:20;99608.28;;;-2.96;83.76
56074;BME280;41950;55.840;37.442;2022-12-29T06:18:46;99569.16;;;-3.25;83.57
56074;BME280;41950;55.840;37.442;2022-12-29T06:21:12;99615.88;;;-2.96;83.67
56074;BME280;41950;55.840;37.442;2022-12-29T06:23:37;99607.50;;;-2.94;83.30
56074;BME280;41950;55.840;37.442;2022-12-29T06:26:03;99601.88;;;-2.85;83.09
56074;BME280;41950;55.840;37.442;2022-12-29T06:28:28;99608.84;;;-2.80;82.95
56074;BME280;41950;55.840;37.442;2022-12-29T06:30:54;99610.38;;;-2.85;82.92
56074;BME280;41950;55.840;37.442;2022-12-29T06:33:19;99609.69;;;-3.03;83.14
56074;BME280;41950;55.840;37.442;2022-12-29T06:35:46;99583.53;;;-3.26;83.28
56074;BME280;41950;55.840;37.442;2022-12-29T06:38:12;99624.50;;;-3.15;83.51
56074;BME280;41950;55.840;37.442;2022-12-29T06:40:38;99609.56;;;-3.30;83.63
56074;BME280;41950;55.840;37.442;2022-12-29T06:43:03;99621.69;;;-3.23;83.74
56074;BME280;41950;55.840;37.442;2022-12-29T06:45:29;99622.50;;;-3.24;83.62
56074;BME280;41950;55.840;37.442;2022-12-29T06:47:54;99617.44;;;-3.24;83.68
56074;BME280;41950;55.840;37.442;2022-12-29T06:50:20;99624.56;;;-3.14;83.48
56074;BME280;41950;55.840;37.442;2022-12-29T06:52:45;99619.44;;;-3.15;83.43
56074;BME280;41950;55.840;37.442;2022-12-29T06:55:11;99592.75;;;-3.28;83.41
56074;BME280;41950;55.840;37.442;2022-12-29T06:57:36;99632.50;;;-3.04;83.56
56074;BME280;41950;55.840;37.442;2022-12-29T07:00:03;99626.81;;;-2.99;83.36
56074;BME280;41950;55.840;37.442;2022-12-29T07:02:30;99626.16;;;-2.93;83.36
56074;BME280;41950;55.840;37.442;2022-12-29T07:04:55;99625.84;;;-2.77;83.06
56074;BME280;41950;55.840;37.442;2022-12-29T07:07:21;99625.03;;;-2.76;82.53
56074;BME280;41950;55.840;37.442;2022-12-29T07:09:47;99628.28;;;-2.80;82.72
56074;BME280;41950;55.840;37.442;2022-12-29T07:12:13;99607.66;;;-2.89;82.83
56074;BME280;41950;55.840;37.442;2022-12-29T07:14:39;99627.63;;;-2.74;82.33
56074;BME280;41950;55.840;37.442;2022-12-29T07:17:05;99629.31;;;-2.75;82.32
56074;BME280;41950;55.840;37.442;2022-12-29T07:19:32;99618.34;;;-2.74;82.43
56074;BME280;41950;55.840;37.442;2022-12-29T07:21:58;99615.88;;;-2.72;82.24
56074;BME280;41950;55.840;37.442;2022-12-29T07:24:24;99643.31;;;-2.62;82.11
56074;BME280;41950;55.840;37.442;2022-12-29T07:26:53;99639.88;;;-2.64;81.92
56074;BME280;41950;55.840;37.442;2022-12-29T07:29:18;99617.00;;;-2.88;81.94
56074;BME280;41950;55.840;37.442;2022-12-29T07:31:44;99628.13;;;-2.85;82.14
56074;BME280;41950;55.840;37.442;2022-12-29T07:34:10;99634.47;;;-2.73;82.30
56074;BME280;41950;55.840;37.442;2022-12-29T07:36:35;99545.41;;;-3.27;82.08
56074;BME280;41950;55.840;37.442;2022-12-29T07:39:02;99629.97;;;-2.81;81.95
56074;BME280;41950;55.840;37.442;2022-12-29T07:41:28;99636.88;;;-2.76;82.33
56074;BME280;41950;55.840;37.442;2022-12-29T07:43:53;99630.06;;;-2.77;82.24
56074;BME280;41950;55.840;37.442;2022-12-29T07:46:19;99633.00;;;-2.67;82.27
56074;BME280;41950;55.840;37.442;2022-12-29T07:48:45;99626.97;;;-2.70;81.98
56074;BME280;41950;55.840;37.442;2022-12-29T07:51:10;99607.13;;;-2.81;81.90
56074;BME280;41950;55.840;37.442;2022-12-29T07:53:36;99626.25;;;-2.66;81.58
56074;BME280;41950;55.840;37.442;2022-12-29T07:56:02;99638.34;;;-2.59;81.68
56074;BME280;41950;55.840;37.442;2022-12-29T07:58:28;99647.69;;;-2.58;81.52
56074;BME280;41950;55.840;37.442;2022-12-29T08:00:54;99639.97;;;-2.61;81.57
56074;BME280;41950;55.840;37.442;2022-12-29T08:03:20;99642.56;;;-2.60;81.50
56074;BME280;41950;55.840;37.442;2022-12-29T08:05:46;99652.88;;;-2.55;81.31
56074;BME280;41950;55.840;37.442;2022-12-29T08:08:11;99644.56;;;-2.75;81.73
56074;BME280;41950;55.840;37.442;2022-12-29T08:10:37;99654.41;;;-2.60;81.69
56074;BME280;41950;55.840;37.442;2022-12-29T08:13:02;99664.97;;;-2.48;81.70
56074;BME280;41950;55.840;37.442;2022-12-29T08:15:28;99658.38;;;-2.43;81.26
56074;BME280;41950;55.840;37.442;2022-12-29T08:17:54;99647.25;;;-2.46;80.95
56074;BME280;41950;55.840;37.442;2022-12-29T08:20:19;99655.94;;;-2.40;81.08
56074;BME280;41950;55.840;37.442;2022-12-29T08:22:45;99641.78;;;-2.57;80.95
56074;BME280;41950;55.840;37.442;2022-12-29T08:25:10;99634.53;;;-2.72;80.98
56074;BME280;41950;55.840;37.442;2022-12-29T08:27:36;99642.72;;;-2.79;81.04
56074;BME280;41950;55.840;37.442;2022-12-29T08:30:02;99667.00;;;-2.63;81.34
56074;BME280;41950;55.840;37.442;2022-12-29T08:32:28;99665.38;;;-2.61;81.33
56074;BME280;41950;55.840;37.442;2022-12-29T08:34:55;99666.28;;;-2.59;81.51
56074;BME280;41950;55.840;37.442;2022-12-29T08:37:21;99670.66;;;-2.55;81.15
56074;BME280;41950;55.840;37.442;2022-12-29T08:39:47;99665.78;;;-2.49;81.18
56074;BME280;41950;55.840;37.442;2022-12-29T08:42:13;99644.78;;;-2.69;81.13
56074;BME280;41950;55.840;37.442;2022-12-29T08:44:39;99673.63;;;-2.43;81.15
56074;BME280;41950;55.840;37.442;2022-12-29T08:47:05;99668.75;;;-2.37;81.08
56074;BME280;41950;55.840;37.442;2022-12-29T08:49:31;99637.16;;;-2.45;80.60
56074;BME280;41950;55.840;37.442;2022-12-29T08:51:58;99653.03;;;-2.25;80.69
56074;BME280;41950;55.840;37.442;2022-12-29T08:54:24;99666.59;;;-2.25;80.62
56074;BME280;41950;55.840;37.442;2022-12-29T08:56:50;99662.53;;;-2.20;80.42
56074;BME280;41950;55.840;37.442;2022-12-29T08:59:15;99656.53;;;-2.22;80.34
56074;BME280;41950;55.840;37.442;2022-12-29T09:01:41;99624.84;;;-2.33;80.41
56074;BME280;41950;55.840;37.442;2022-12-29T09:04:07;99667.84;;;-2.13;80.32
56074;BME280;41950;55.840;37.442;2022-12-29T09:06:33;99648.03;;;-2.22;80.32
56074;BME280;41950;55.840;37.442;2022-12-29T09:08:59;99647.19;;;-2.23;80.07
56074;BME280;41950;55.840;37.442;2022-12-29T09:11:25;99672.38;;;-2.05;79.92
56074;BME280;41950;55.840;37.442;2022-12-29T09:13:52;99680.47;;;-2.16;79.78
56074;BME280;41950;55.840;37.442;2022-12-29T09:16:20;99680.94;;;-2.27;80.10
56074;BME280;41950;55.840;37.442;2022-12-29T09:18:46;99630.63;;;-2.62;80.04
56074;BME280;41950;55.840;37.442;2022-12-29T09:21:12;99670.44;;;-2.37;80.59
56074;BME280;41950;55.840;37.442;2022-12-29T09:23:38;99671.50;;;-2.31;80.40
56074;BME280;41950;55.840;37.442;2022-12-29T09:26:05;99670.47;;;-2.36;80.38
56074;BME280;41950;55.840;37.442;2022-12-29T09:28:31;99666.22;;;-2.37;80.49
56074;BME280;41950;55.840;37.442;2022-12-29T09:30:57;99643.28;;;-2.38;80.39
56074;BME280;41950;55.840;37.442;2022-12-29T09:33:24;99661.66;;;-2.20;80.50
56074;BME280;41950;55.840;37.442;2022-12-29T09:35:52;99672.94;;;-2.13;79.75
56074;BME280;41950;55.840;37.442;2022-12-29T09:38:18;99672.50;;;-2.26;80.09
56074;BME280;41950;55.840;37.442;2022-12-29T09:40:49;99672.72;;;-2.20;80.33
56074;BME280;41950;55.840;37.442;2022-12-29T09:45:55;99676.19;;;-2.17;80.27
56074;BME280;41950;55.840;37.442;2022-12-29T09:48:34;99643.13;;;-2.43;80.20
56074;BME280;41950;55.840;37.442;2022-12-29T09:51:09;99678.03;;;-2.13;80.61
56074;BME280;41950;55.840;37.442;2022-12-29T09:53:38;99675.63;;;-2.09;80.19
56074;BME280;41950;55.840;37.442;2022-12-29T09:56:05;99637.53;;;-2.33;80.07
56074;BME280;41950;55.840;37.442;2022-12-29T09:58:47;99662.66;;;-2.16;80.30
56074;BME280;41950;55.840;37.442;2022-12-29T10:01:41;99667.56;;;-2.21;80.01
56074;BME280;41950;55.840;37.442;2022-12-29T10:04:08;99670.78;;;-2.27;80.13
56074;BME280;41950;55.840;37.442;2022-12-29T10:09:43;99662.34;;;-2.26;80.44
56074;BME280;41950;55.840;37.442;2022-12-29T10:25:26;99660.75;;;-1.70;79.51
56074;BME280;41950;55.840;37.442;2022-12-29T10:27:56;99640.94;;;-1.80;79.49
56074;BME280;41950;55.840;37.442;2022-12-29T10:30:24;99658.34;;;-1.65;79.47
56074;BME280;41950;55.840;37.442;2022-12-29T10:32:58;99662.84;;;-1.58;79.43
56074;BME280;41950;55.840;37.442;2022-12-29T10:35:32;99650.16;;;-1.57;79.13
56074;BME280;41950;55.840;37.442;2022-12-29T10:38:23;99643.44;;;-1.54;78.94
56074;BME280;41950;55.840;37.442;2022-12-29T10:41:13;99639.06;;;-1.59;78.79
56074;BME280;41950;55.840;37.442;2022-12-29T10:43:48;99644.59;;;-1.43;78.82
56074;BME280;41950;55.840;37.442;2022-12-29T10:46:35;99654.41;;;-1.29;78.67
56074;BME280;41950;55.840;37.442;2022-12-29T10:49:01;99627.06;;;-1.34;78.34
56074;BME280;41950;55.840;37.442;2022-12-29T10:51:28;99646.88;;;-1.24;78.37
56074;BME280;41950;55.840;37.442;2022-12-29T10:54:44;99612.19;;;-1.49;78.28
56074;BME280;41950;55.840;37.442;2022-12-29T10:57:03;99637.31;;;-1.33;78.08
56074;BME280;41950;55.840;37.442;2022-12-29T10:59:31;99648.75;;;-1.18;78.50
56074;BME280;41950;55.840;37.442;2022-12-29T11:05:06;99610.53;;;-1.48;78.11
56074;BME280;41950;55.840;37.442;2022-12-29T11:07:34;99645.84;;;-1.31;78.46
56074;BME280;41950;55.840;37.442;2022-12-29T11:13:10;99622.94;;;-1.59;78.73
56074;BME280;41950;55.840;37.442;2022-12-29T11:15:41;99601.50;;;-1.66;78.86
56074;BME280;41950;55.840;37.442;2022-12-29T11:18:24;99617.34;;;-1.47;78.70
56074;BME280;41950;55.840;37.442;2022-12-29T11:21:01;99634.75;;;-1.33;78.80
56074;BME280;41950;55.840;37.442;2022-12-29T11:23:37;99650.28;;;-1.23;78.75
56074;BME280;41950;55.840;37.442;2022-12-29T11:26:16;99637.47;;;-1.27;78.71
56074;BME280;41950;55.840;37.442;2022-12-29T11:28:46;99627.28;;;-1.27;78.77
56074;BME280;41950;55.840;37.442;2022-12-29T11:31:16;99633.47;;;-1.18;78.73
56074;BME280;41950;55.840;37.442;2022-12-29T11:33:42;99629.28;;;-1.16;78.76
56074;BME280;41950;55.840;37.442;2022-12-29T11:36:18;99631.13;;;-1.11;78.89
56074;BME280;41950;55.840;37.442;2022-12-29T11:38:53;99607.88;;;-1.23;78.56
56074;BME280;41950;55.840;37.442;2022-12-29T11:41:23;99630.50;;;-1.04;78.52
56074;BME280;41950;55.840;37.442;2022-12-29T11:43:49;99599.53;;;-1.17;78.41
56074;BME280;41950;55.840;37.442;2022-12-29T11:46:19;99638.25;;;-0.99;78.31
56074;BME280;41950;55.840;37.442;2022-12-29T11:48:46;99633.16;;;-0.99;78.34
56074;BME280;41950;55.840;37.442;2022-12-29T11:51:22;99636.69;;;-0.94;78.14
56074;BME280;41950;55.840;37.442;2022-12-29T11:53:52;99633.25;;;-0.96;78.22
56074;BME280;41950;55.840;37.442;2022-12-29T11:56:40;99638.34;;;-0.96;78.11
56074;BME280;41950;55.840;37.442;2022-12-29T12:01:57;99667.34;;;-0.91;77.91
56074;BME280;41950;55.840;37.442;2022-12-29T12:04:28;99668.22;;;-0.90;78.20
56074;BME280;41950;55.840;37.442;2022-12-29T12:07:03;99668.13;;;-0.94;78.09
56074;BME280;41950;55.840;37.442;2022-12-29T12:09:35;99666.31;;;-0.98;78.29
56074;BME280;41950;55.840;37.442;2022-12-29T12:12:03;99667.88;;;-1.03;78.36
56074;BME280;41950;55.840;37.442;2022-12-29T12:14:43;99641.31;;;-1.11;78.48
56074;BME280;41950;55.840;37.442;2022-12-29T12:22:36;99650.84;;;-1.05;78.65
56074;BME280;41950;55.840;37.442;2022-12-29T12:25:11;99656.09;;;-0.99;78.17
56074;BME280;41950;55.840;37.442;2022-12-29T12:27:43;99659.47;;;-1.00;78.56
56074;BME280;41950;55.840;37.442;2022-12-29T12:30:23;99654.31;;;-1.02;78.31
56074;BME280;41950;55.840;37.442;2022-12-29T12:41:09;99655.41;;;-0.94;78.15
56074;BME280;41950;55.840;37.442;2022-12-29T12:46:14;99654.50;;;-0.96;78.58
56074;BME280;41950;55.840;37.442;2022-12-29T12:54:43;99640.69;;;-1.04;78.75
56074;BME280;41950;55.840;37.442;2022-12-29T12:57:27;99653.63;;;-0.96;78.90
56074;BME280;41950;55.840;37.442;2022-12-29T13:00:09;99643.34;;;-0.99;78.83
56074;BME280;41950;55.840;37.442;2022-12-29T13:16:40;99661.28;;;-0.96;79.34
56074;BME280;41950;55.840;37.442;2022-12-29T13:21:56;99663.03;;;-0.94;79.49
56074;BME280;41950;55.840;37.442;2022-12-29T13:37:29;99659.59;;;-0.96;80.02
56074;BME280;41950;55.840;37.442;2022-12-29T13:40:11;99657.13;;;-0.93;79.65
56074;BME280;41950;55.840;37.442;2022-12-29T13:42:40;99635.72;;;-0.99;79.97
56074;BME280;41950;55.840;37.442;2022-12-29T13:45:13;99652.06;;;-0.91;80.08
56074;BME280;41950;55.840;37.442;2022-12-29T13:47:48;99611.56;;;-1.12;80.13
56074;BME280;41950;55.840;37.442;2022-12-29T13:50:21;99648.69;;;-0.90;80.12
56074;BME280;41950;55.840;37.442;2022-12-29T13:53:23;99646.19;;;-0.88;80.29
56074;BME280;41950;55.840;37.442;2022-12-29T13:56:03;99648.75;;;-0.88;80.26
56074;BME280;41950;55.840;37.442;2022-12-29T14:04:13;99652.09;;;-0.89;80.31
56074;BME280;41950;55.840;37.442;2022-12-29T14:06:38;99652.22;;;-0.85;80.34
56074;BME280;41950;55.840;37.442;2022-12-29T14:09:29;99610.94;;;-1.05;80.05
56074;BME280;41950;55.840;37.442;2022-12-29T14:11:58;99646.09;;;-0.91;80.40
56074;BME280;41950;55.840;37.442;2022-12-29T14:14:28;99647.00;;;-0.89;80.48
56074;BME280;41950;55.840;37.442;2022-12-29T14:17:08;99652.19;;;-0.86;80.57
56074;BME280;41950;55.840;37.442;2022-12-29T14:19:39;99641.06;;;-0.90;80.79
56074;BME280;41950;55.840;37.442;2022-12-29T14:22:06;99643.06;;;-0.80;80.43
56074;BME280;41950;55.840;37.442;2022-12-29T14:34:59;99637.22;;;-0.76;80.29
56074;BME280;41950;55.840;37.442;2022-12-29T14:37:27;99657.06;;;-0.64;80.38
56074;BME280;41950;55.840;37.442;2022-12-29T14:42:29;99653.09;;;-0.54;80.06
56074;BME280;41950;55.840;37.442;2022-12-29T14:47:44;99660.03;;;-0.49;80.27
56074;BME280;41950;55.840;37.442;2022-12-29T14:52:51;99654.09;;;-0.48;80.14
56074;BME280;41950;55.840;37.442;2022-12-29T14:58:00;99655.78;;;-0.48;80.16
56074;BME280;41950;55.840;37.442;2022-12-29T15:00:33;99659.31;;;-0.43;80.31
56074;BME280;41950;55.840;37.442;2022-12-29T15:03:06;99645.56;;;-0.50;80.24
56074;BME280;41950;55.840;37.442;2022-12-29T15:05:46;99658.56;;;-0.39;80.06
56074;BME280;41950;55.840;37.442;2022-12-29T15:08:13;99622.31;;;-0.60;79.94
56074;BME280;41950;55.840;37.442;2022-12-29T15:10:56;99656.06;;;-0.38;79.82
56074;BME280;41950;55.840;37.442;2022-12-29T15:13:36;99656.00;;;-0.41;79.70
56074;BME280;41950;55.840;37.442;2022-12-29T15:16:02;99661.09;;;-0.41;79.77
56074;BME280;41950;55.840;37.442;2022-12-29T15:18:32;99650.88;;;-0.41;79.76